sensor_id;sensor_type;location;lat;lon;timestamp;P1;durP1;ratioP1;P2;durP2;ratioP2
14994;SDS011;7593;49.006;8.372;2022-09-01T00:01:21;6.22;;;5.60;;
14994;SDS011;7593;49.006;8.372;2022-09-01T00:03:51;6.75;;;5.53;;
14994;SDS011;7593;49.006;8.372;2022-09-01T00:06:21;6.78;;;5.20;;
14994;SDS011;7593;49.006;8.372;2022-09-01T00:08:49;6.85;;;6.25;;
14994;SDS011;7593;49.006;8.372;2022-09-01T00:11:17;7.43;;;6.60;;
14994;SDS011;7593;49.006;8.372;2022-09-01T00:13:44;6.95;;;6.25;;
14994;SDS011;7593;49.006;8.372;2022-09-01T00:16:11;10.57;;;7.22;;
14994;SDS011;7593;49.006;8.372;2022-09-01T00:18:40;10.05;;;7.15;;
14994;SDS011;7593;49.006;8.372;2022-09-01T00:21:10;8.30;;;7.10;;
14994;SDS011;7593;49.006;8.372;2022-09-01T00:23:39;8.13;;;7.32;;
14994;SDS011;7593;49.006;8.372;2022-09-01T00:26:06;8.00;;;7.30;;
14994;SDS011;7593;49.006;8.372;2022-09-01T00:28:33;8.35;;;7.55;;
14994;SDS011;7593;49.006;8.372;2022-09-01T00:31:01;9.15;;;8.15;;
14994;SDS011;7593;49.006;8.372;2022-09-01T00:33:29;7.97;;;7.20;;
14994;SDS011;7593;49.006;8.372;2022-09-01T00:35:55;8.40;;;6.72;;
14994;SDS011;7593;49.006;8.372;2022-09-01T00:38:22;7.15;;;6.55;;
14994;SDS011;7593;49.006;8.372;2022-09-01T00:40:50;7.55;;;6.85;;
14994;SDS011;7593;49.006;8.372;2022-09-01T00:43:20;9.43;;;6.32;;
14994;SDS011;7593;49.006;8.372;2022-09-01T00:45:48;6.32;;;5.82;;
14994;SDS011;7593;49.006;8.372;2022-09-01T00:48:16;8.73;;;6.18;;
14994;SDS011;7593;49.006;8.372;2022-09-01T00:50:45;6.65;;;6.05;;
14994;SDS011;7593;49.006;8.372;2022-09-01T00:53:13;7.25;;;5.60;;
14994;SDS011;7593;49.006;8.372;2022-09-01T00:55:39;5.97;;;5.38;;
14994;SDS011;7593;49.006;8.372;2022-09-01T00:58:08;7.53;;;5.40;;
14994;SDS011;7593;49.006;8.372;2022-09-01T01:17:28;5.95;;;5.38;;
14994;SDS011;7593;49.006;8.372;2022-09-01T01:19:55;7.78;;;5.72;;
14994;SDS011;7593;49.006;8.372;2022-09-01T01:22:43;7.03;;;5.63;;
14994;SDS011;7593;49.006;8.372;2022-09-01T01:25:33;6.78;;;5.53;;
14994;SDS011;7593;49.006;8.372;2022-09-01T01:28:06;6.45;;;5.68;;
14994;SDS011;7593;49.006;8.372;2022-09-01T01:30:35;6.20;;;5.70;;
14994;SDS011;7593;49.006;8.372;2022-09-01T01:33:04;8.93;;;5.93;;
14994;SDS011;7593;49.006;8.372;2022-09-01T01:35:32;7.90;;;6.38;;
14994;SDS011;7593;49.006;8.372;2022-09-01T01:37:59;8.40;;;5.85;;
14994;SDS011;7593;49.006;8.372;2022-09-01T01:40:30;6.82;;;6.13;;
14994;SDS011;7593;49.006;8.372;2022-09-01T01:43:02;6.85;;;6.15;;
14994;SDS011;7593;49.006;8.372;2022-09-01T01:45:30;7.03;;;6.38;;
14994;SDS011;7593;49.006;8.372;2022-09-01T01:47:57;7.43;;;6.72;;
14994;SDS011;7593;49.006;8.372;2022-09-01T01:50:33;7.18;;;6.47;;
14994;SDS011;7593;49.006;8.372;2022-09-01T01:53:02;8.73;;;6.88;;
14994;SDS011;7593;49.006;8.372;2022-09-01T01:55:30;7.38;;;6.70;;
14994;SDS011;7593;49.006;8.372;2022-09-01T01:57:58;8.52;;;6.32;;
14994;SDS011;7593;49.006;8.372;2022-09-01T02:00:27;7.30;;;6.57;;
14994;SDS011;7593;49.006;8.372;2022-09-01T02:02:56;7.72;;;6.60;;
14994;SDS011;7593;49.006;8.372;2022-09-01T02:05:25;7.85;;;6.68;;
14994;SDS011;7593;49.006;8.372;2022-09-01T02:07:58;7.20;;;6.57;;
14994;SDS011;7593;49.006;8.372;2022-09-01T02:10:29;8.13;;;7.43;;
14994;SDS011;7593;49.006;8.372;2022-09-01T02:13:00;7.97;;;6.63;;
14994;SDS011;7593;49.006;8.372;2022-09-01T02:15:32;7.18;;;6.57;;
14994;SDS011;7593;49.006;8.372;2022-09-01T02:18:08;7.75;;;7.05;;
14994;SDS011;7593;49.006;8.372;2022-09-01T02:20:37;7.60;;;6.93;;
14994;SDS011;7593;49.006;8.372;2022-09-01T02:23:05;8.32;;;7.45;;
14994;SDS011;7593;49.006;8.372;2022-09-01T02:25:34;7.95;;;7.18;;
14994;SDS011;7593;49.006;8.372;2022-09-01T02:28:04;10.23;;;7.43;;
14994;SDS011;7593;49.006;8.372;2022-09-01T02:30:33;10.90;;;7.55;;
14994;SDS011;7593;49.006;8.372;2022-09-01T02:33:02;9.82;;;7.20;;
14994;SDS011;7593;49.006;8.372;2022-09-01T02:35:30;7.88;;;7.07;;
14994;SDS011;7593;49.006;8.372;2022-09-01T02:37:58;12.40;;;7.18;;
14994;SDS011;7593;49.006;8.372;2022-09-01T02:40:25;7.95;;;7.13;;
14994;SDS011;7593;49.006;8.372;2022-09-01T02:42:54;8.38;;;6.80;;
14994;SDS011;7593;49.006;8.372;2022-09-01T02:45:24;10.57;;;7.10;;
14994;SDS011;7593;49.006;8.372;2022-09-01T02:47:51;7.68;;;6.93;;
14994;SDS011;7593;49.006;8.372;2022-09-01T02:50:21;7.47;;;6.70;;
14994;SDS011;7593;49.006;8.372;2022-09-01T02:52:49;8.00;;;7.18;;
14994;SDS011;7593;49.006;8.372;2022-09-01T02:55:17;7.75;;;7.03;;
14994;SDS011;7593;49.006;8.372;2022-09-01T02:57:46;8.65;;;7.07;;
14994;SDS011;7593;49.006;8.372;2022-09-01T03:00:14;8.05;;;7.07;;
14994;SDS011;7593;49.006;8.372;2022-09-01T03:02:49;7.45;;;6.75;;
14994;SDS011;7593;49.006;8.372;2022-09-01T03:05:17;8.02;;;7.32;;
14994;SDS011;7593;49.006;8.372;2022-09-01T03:07:49;8.32;;;6.90;;
14994;SDS011;7593;49.006;8.372;2022-09-01T03:10:20;8.07;;;7.30;;
14994;SDS011;7593;49.006;8.372;2022-09-01T03:12:56;7.60;;;6.90;;
14994;SDS011;7593;49.006;8.372;2022-09-01T03:15:23;10.57;;;7.40;;
14994;SDS011;7593;49.006;8.372;2022-09-01T03:17:52;8.18;;;7.45;;
14994;SDS011;7593;49.006;8.372;2022-09-01T03:20:19;8.48;;;7.68;;
14994;SDS011;7593;49.006;8.372;2022-09-01T03:22:46;8.93;;;7.00;;
14994;SDS011;7593;49.006;8.372;2022-09-01T03:25:14;8.30;;;7.50;;
14994;SDS011;7593;49.006;8.372;2022-09-01T03:27:42;9.40;;;7.53;;
14994;SDS011;7593;49.006;8.372;2022-09-01T03:30:09;9.45;;;7.45;;
14994;SDS011;7593;49.006;8.372;2022-09-01T03:32:37;8.38;;;7.57;;
14994;SDS011;7593;49.006;8.372;2022-09-01T03:35:06;8.23;;;7.43;;
14994;SDS011;7593;49.006;8.372;2022-09-01T03:37:35;9.45;;;7.88;;
14994;SDS011;7593;49.006;8.372;2022-09-01T03:40:04;12.60;;;8.02;;
14994;SDS011;7593;49.006;8.372;2022-09-01T03:42:34;8.52;;;7.63;;
14994;SDS011;7593;49.006;8.372;2022-09-01T03:45:01;8.45;;;7.75;;
14994;SDS011;7593;49.006;8.372;2022-09-01T03:47:33;8.70;;;7.90;;
14994;SDS011;7593;49.006;8.372;2022-09-01T03:50:07;9.45;;;8.48;;
14994;SDS011;7593;49.006;8.372;2022-09-01T03:52:37;8.55;;;7.78;;
14994;SDS011;7593;49.006;8.372;2022-09-01T03:55:05;12.98;;;8.00;;
14994;SDS011;7593;49.006;8.372;2022-09-01T03:57:33;8.80;;;7.93;;
14994;SDS011;7593;49.006;8.372;2022-09-01T04:00:07;9.18;;;8.30;;
14994;SDS011;7593;49.006;8.372;2022-09-01T04:02:47;9.57;;;8.23;;
14994;SDS011;7593;49.006;8.372;2022-09-01T04:05:17;8.82;;;7.95;;
14994;SDS011;7593;49.006;8.372;2022-09-01T04:07:47;9.20;;;8.38;;
14994;SDS011;7593;49.006;8.372;2022-09-01T04:10:14;10.35;;;8.57;;
14994;SDS011;7593;49.006;8.372;2022-09-01T04:12:42;9.85;;;8.90;;
14994;SDS011;7593;49.006;8.372;2022-09-01T04:15:10;10.73;;;9.15;;
14994;SDS011;7593;49.006;8.372;2022-09-01T04:17:38;12.15;;;8.43;;
14994;SDS011;7593;49.006;8.372;2022-09-01T04:20:24;10.65;;;9.18;;
14994;SDS011;7593;49.006;8.372;2022-09-01T04:22:51;10.50;;;9.52;;
14994;SDS011;7593;49.006;8.372;2022-09-01T04:25:18;9.52;;;8.70;;
14994;SDS011;7593;49.006;8.372;2022-09-01T04:27:47;10.30;;;9.25;;
14994;SDS011;7593;49.006;8.372;2022-09-01T04:30:14;10.68;;;9.63;;
14994;SDS011;7593;49.006;8.372;2022-09-01T04:32:41;10.02;;;8.80;;
14994;SDS011;7593;49.006;8.372;2022-09-01T04:35:10;10.60;;;9.02;;
14994;SDS011;7593;49.006;8.372;2022-09-01T04:37:42;10.60;;;9.32;;
14994;SDS011;7593;49.006;8.372;2022-09-01T04:40:12;10.10;;;9.10;;
14994;SDS011;7593;49.006;8.372;2022-09-01T04:42:39;10.40;;;9.30;;
14994;SDS011;7593;49.006;8.372;2022-09-01T04:45:07;10.57;;;9.45;;
14994;SDS011;7593;49.006;8.372;2022-09-01T04:47:37;11.98;;;8.75;;
14994;SDS011;7593;49.006;8.372;2022-09-01T04:50:06;9.60;;;8.73;;
14994;SDS011;7593;49.006;8.372;2022-09-01T04:52:38;10.35;;;9.45;;
14994;SDS011;7593;49.006;8.372;2022-09-01T04:55:09;11.63;;;10.43;;
14994;SDS011;7593;49.006;8.372;2022-09-01T04:57:41;10.93;;;9.93;;
14994;SDS011;7593;49.006;8.372;2022-09-01T05:00:12;10.45;;;9.25;;
14994;SDS011;7593;49.006;8.372;2022-09-01T05:02:46;14.48;;;9.90;;
14994;SDS011;7593;49.006;8.372;2022-09-01T05:05:16;11.52;;;10.32;;
14994;SDS011;7593;49.006;8.372;2022-09-01T05:07:43;11.98;;;10.65;;
14994;SDS011;7593;49.006;8.372;2022-09-01T05:10:12;11.57;;;10.52;;
14994;SDS011;7593;49.006;8.372;2022-09-01T05:12:38;11.85;;;10.75;;
14994;SDS011;7593;49.006;8.372;2022-09-01T05:15:09;11.88;;;10.68;;
14994;SDS011;7593;49.006;8.372;2022-09-01T05:17:36;10.90;;;9.93;;
14994;SDS011;7593;49.006;8.372;2022-09-01T05:20:03;12.60;;;10.05;;
14994;SDS011;7593;49.006;8.372;2022-09-01T05:22:32;12.27;;;10.98;;
14994;SDS011;7593;49.006;8.372;2022-09-01T05:25:00;11.32;;;10.32;;
14994;SDS011;7593;49.006;8.372;2022-09-01T05:27:37;12.13;;;10.93;;
14994;SDS011;7593;49.006;8.372;2022-09-01T05:30:05;11.52;;;10.38;;
14994;SDS011;7593;49.006;8.372;2022-09-01T05:32:33;11.80;;;10.68;;
14994;SDS011;7593;49.006;8.372;2022-09-01T05:35:01;12.43;;;11.07;;
14994;SDS011;7593;49.006;8.372;2022-09-01T05:37:32;12.50;;;11.30;;
14994;SDS011;7593;49.006;8.372;2022-09-01T05:40:01;14.00;;;11.32;;
14994;SDS011;7593;49.006;8.372;2022-09-01T05:42:30;14.52;;;13.13;;
14994;SDS011;7593;49.006;8.372;2022-09-01T05:44:58;12.80;;;11.50;;
14994;SDS011;7593;49.006;8.372;2022-09-01T05:47:26;12.23;;;10.45;;
14994;SDS011;7593;49.006;8.372;2022-09-01T05:49:53;12.82;;;10.00;;
14994;SDS011;7593;49.006;8.372;2022-09-01T05:52:22;12.10;;;9.38;;
14994;SDS011;7593;49.006;8.372;2022-09-01T05:54:50;11.10;;;8.95;;
14994;SDS011;7593;49.006;8.372;2022-09-01T05:57:17;9.60;;;8.63;;
14994;SDS011;7593;49.006;8.372;2022-09-01T05:59:44;9.63;;;8.73;;
14994;SDS011;7593;49.006;8.372;2022-09-01T06:02:19;10.88;;;9.05;;
14994;SDS011;7593;49.006;8.372;2022-09-01T06:04:46;14.20;;;9.85;;
14994;SDS011;7593;49.006;8.372;2022-09-01T06:07:13;10.45;;;9.43;;
14994;SDS011;7593;49.006;8.372;2022-09-01T06:09:42;10.52;;;9.02;;
14994;SDS011;7593;49.006;8.372;2022-09-01T06:12:11;11.13;;;9.90;;
14994;SDS011;7593;49.006;8.372;2022-09-01T06:14:44;9.68;;;8.68;;
14994;SDS011;7593;49.006;8.372;2022-09-01T06:17:11;10.77;;;9.82;;
14994;SDS011;7593;49.006;8.372;2022-09-01T06:19:41;11.57;;;8.40;;
14994;SDS011;7593;49.006;8.372;2022-09-01T06:22:09;10.43;;;9.20;;
14994;SDS011;7593;49.006;8.372;2022-09-01T06:24:36;10.30;;;9.27;;
14994;SDS011;7593;49.006;8.372;2022-09-01T06:27:04;9.85;;;8.60;;
14994;SDS011;7593;49.006;8.372;2022-09-01T06:29:34;10.13;;;9.23;;
14994;SDS011;7593;49.006;8.372;2022-09-01T06:32:02;10.32;;;8.70;;
14994;SDS011;7593;49.006;8.372;2022-09-01T06:34:32;10.20;;;8.30;;
14994;SDS011;7593;49.006;8.372;2022-09-01T06:37:01;8.80;;;7.97;;
14994;SDS011;7593;49.006;8.372;2022-09-01T06:39:28;11.35;;;8.90;;
14994;SDS011;7593;49.006;8.372;2022-09-01T06:41:55;10.73;;;8.38;;
14994;SDS011;7593;49.006;8.372;2022-09-01T06:44:23;13.00;;;9.10;;
14994;SDS011;7593;49.006;8.372;2022-09-01T06:46:50;8.90;;;8.00;;
14994;SDS011;7593;49.006;8.372;2022-09-01T06:49:17;11.05;;;9.27;;
14994;SDS011;7593;49.006;8.372;2022-09-01T06:51:45;9.95;;;8.93;;
14994;SDS011;7593;49.006;8.372;2022-09-01T06:54:17;9.43;;;8.40;;
14994;SDS011;7593;49.006;8.372;2022-09-01T06:56:43;10.80;;;8.70;;
14994;SDS011;7593;49.006;8.372;2022-09-01T06:59:10;10.70;;;8.75;;
14994;SDS011;7593;49.006;8.372;2022-09-01T07:01:39;11.48;;;8.93;;
14994;SDS011;7593;49.006;8.372;2022-09-01T07:04:07;10.93;;;9.85;;
14994;SDS011;7593;49.006;8.372;2022-09-01T07:06:34;11.07;;;8.93;;
14994;SDS011;7593;49.006;8.372;2022-09-01T07:09:01;8.98;;;8.18;;
14994;SDS011;7593;49.006;8.372;2022-09-01T07:11:30;11.27;;;8.82;;
14994;SDS011;7593;49.006;8.372;2022-09-01T07:14:01;9.80;;;8.38;;
14994;SDS011;7593;49.006;8.372;2022-09-01T07:16:29;10.68;;;8.57;;
14994;SDS011;7593;49.006;8.372;2022-09-01T07:18:59;10.45;;;8.93;;
14994;SDS011;7593;49.006;8.372;2022-09-01T07:21:28;9.85;;;8.85;;
14994;SDS011;7593;49.006;8.372;2022-09-01T07:23:56;8.93;;;8.07;;
14994;SDS011;7593;49.006;8.372;2022-09-01T07:26:25;9.60;;;8.60;;
14994;SDS011;7593;49.006;8.372;2022-09-01T07:28:54;10.00;;;9.10;;
14994;SDS011;7593;49.006;8.372;2022-09-01T07:31:23;9.68;;;8.73;;
14994;SDS011;7593;49.006;8.372;2022-09-01T07:33:51;8.93;;;8.10;;
14994;SDS011;7593;49.006;8.372;2022-09-01T07:36:21;9.30;;;8.50;;
14994;SDS011;7593;49.006;8.372;2022-09-01T07:38:48;9.50;;;8.60;;
14994;SDS011;7593;49.006;8.372;2022-09-01T07:41:18;10.18;;;8.65;;
14994;SDS011;7593;49.006;8.372;2022-09-01T07:43:46;8.65;;;7.95;;
14994;SDS011;7593;49.006;8.372;2022-09-01T07:46:19;9.10;;;8.18;;
14994;SDS011;7593;49.006;8.372;2022-09-01T07:48:47;9.45;;;8.50;;
14994;SDS011;7593;49.006;8.372;2022-09-01T07:51:15;9.52;;;8.10;;
14994;SDS011;7593;49.006;8.372;2022-09-01T07:53:44;8.68;;;7.78;;
14994;SDS011;7593;49.006;8.372;2022-09-01T07:56:12;10.95;;;7.70;;
14994;SDS011;7593;49.006;8.372;2022-09-01T07:58:43;8.88;;;7.50;;
14994;SDS011;7593;49.006;8.372;2022-09-01T08:01:11;8.90;;;8.10;;
14994;SDS011;7593;49.006;8.372;2022-09-01T08:03:44;8.35;;;7.53;;
14994;SDS011;7593;49.006;8.372;2022-09-01T08:06:12;8.63;;;7.68;;
14994;SDS011;7593;49.006;8.372;2022-09-01T08:08:43;7.68;;;7.00;;
14994;SDS011;7593;49.006;8.372;2022-09-01T08:11:14;8.10;;;7.25;;
14994;SDS011;7593;49.006;8.372;2022-09-01T08:13:42;8.00;;;7.30;;
14994;SDS011;7593;49.006;8.372;2022-09-01T08:16:09;7.68;;;6.97;;
14994;SDS011;7593;49.006;8.372;2022-09-01T08:18:37;8.10;;;6.85;;
14994;SDS011;7593;49.006;8.372;2022-09-01T08:21:06;8.25;;;7.45;;
14994;SDS011;7593;49.006;8.372;2022-09-01T08:23:34;9.23;;;7.00;;
14994;SDS011;7593;49.006;8.372;2022-09-01T08:26:04;7.13;;;6.50;;
14994;SDS011;7593;49.006;8.372;2022-09-01T08:28:32;6.80;;;6.20;;
14994;SDS011;7593;49.006;8.372;2022-09-01T08:30:58;8.30;;;6.50;;
14994;SDS011;7593;49.006;8.372;2022-09-01T08:33:28;8.30;;;6.85;;
14994;SDS011;7593;49.006;8.372;2022-09-01T08:35:59;7.05;;;6.35;;
14994;SDS011;7593;49.006;8.372;2022-09-01T08:38:28;8.93;;;6.22;;
14994;SDS011;7593;49.006;8.372;2022-09-01T08:40:55;8.32;;;5.90;;
14994;SDS011;7593;49.006;8.372;2022-09-01T08:43:26;7.25;;;6.57;;
14994;SDS011;7593;49.006;8.372;2022-09-01T08:46:08;7.55;;;6.82;;
14994;SDS011;7593;49.006;8.372;2022-09-01T08:48:42;6.20;;;5.65;;
14994;SDS011;7593;49.006;8.372;2022-09-01T08:51:13;6.15;;;5.55;;
14994;SDS011;7593;49.006;8.372;2022-09-01T08:53:46;6.07;;;5.57;;
14994;SDS011;7593;49.006;8.372;2022-09-01T08:56:18;10.13;;;5.60;;
14994;SDS011;7593;49.006;8.372;2022-09-01T08:58:46;5.55;;;5.13;;
14994;SDS011;7593;49.006;8.372;2022-09-01T09:01:15;5.63;;;5.10;;
14994;SDS011;7593;49.006;8.372;2022-09-01T09:03:50;5.97;;;5.07;;
14994;SDS011;7593;49.006;8.372;2022-09-01T09:06:31;6.43;;;5.57;;
14994;SDS011;7593;49.006;8.372;2022-09-01T09:09:03;5.78;;;5.28;;
14994;SDS011;7593;49.006;8.372;2022-09-01T09:17:22;6.43;;;4.57;;
14994;SDS011;7593;49.006;8.372;2022-09-01T09:19:53;4.80;;;4.40;;
14994;SDS011;7593;49.006;8.372;2022-09-01T09:22:20;6.15;;;4.20;;
14994;SDS011;7593;49.006;8.372;2022-09-01T09:24:49;4.20;;;3.80;;
14994;SDS011;7593;49.006;8.372;2022-09-01T09:27:18;4.88;;;4.43;;
14994;SDS011;7593;49.006;8.372;2022-09-01T09:29:47;4.30;;;3.90;;
14994;SDS011;7593;49.006;8.372;2022-09-01T09:32:16;4.53;;;4.13;;
14994;SDS011;7593;49.006;8.372;2022-09-01T09:34:44;4.38;;;3.97;;
14994;SDS011;7593;49.006;8.372;2022-09-01T09:37:21;4.72;;;4.35;;
14994;SDS011;7593;49.006;8.372;2022-09-01T09:40:05;5.50;;;4.40;;
14994;SDS011;7593;49.006;8.372;2022-09-01T09:42:35;4.75;;;4.35;;
14994;SDS011;7593;49.006;8.372;2022-09-01T09:45:04;8.10;;;4.95;;
14994;SDS011;7593;49.006;8.372;2022-09-01T09:47:39;4.97;;;4.57;;
14994;SDS011;7593;49.006;8.372;2022-09-01T09:50:15;5.22;;;4.72;;
14994;SDS011;7593;49.006;8.372;2022-09-01T09:52:44;5.05;;;4.55;;
14994;SDS011;7593;49.006;8.372;2022-09-01T09:55:26;5.30;;;4.55;;
14994;SDS011;7593;49.006;8.372;2022-09-01T09:57:55;4.90;;;4.50;;
14994;SDS011;7593;49.006;8.372;2022-09-01T10:00:25;4.82;;;4.43;;
14994;SDS011;7593;49.006;8.372;2022-09-01T10:02:57;4.97;;;4.47;;
14994;SDS011;7593;49.006;8.372;2022-09-01T10:05:35;4.30;;;4.00;;
14994;SDS011;7593;49.006;8.372;2022-09-01T10:08:05;4.50;;;4.00;;
14994;SDS011;7593;49.006;8.372;2022-09-01T10:10:37;4.45;;;3.92;;
14994;SDS011;7593;49.006;8.372;2022-09-01T10:13:07;6.32;;;3.67;;
14994;SDS011;7593;49.006;8.372;2022-09-01T10:15:36;4.22;;;3.55;;
14994;SDS011;7593;49.006;8.372;2022-09-01T10:18:06;4.30;;;3.67;;
14994;SDS011;7593;49.006;8.372;2022-09-01T10:20:38;5.57;;;4.25;;
14994;SDS011;7593;49.006;8.372;2022-09-01T10:23:12;6.70;;;4.32;;
14994;SDS011;7593;49.006;8.372;2022-09-01T10:25:40;5.05;;;4.13;;
14994;SDS011;7593;49.006;8.372;2022-09-01T10:28:09;6.50;;;3.75;;
14994;SDS011;7593;49.006;8.372;2022-09-01T10:30:38;5.32;;;3.70;;
14994;SDS011;7593;49.006;8.372;2022-09-01T10:33:08;4.55;;;4.15;;
14994;SDS011;7593;49.006;8.372;2022-09-01T10:35:38;4.40;;;3.92;;
14994;SDS011;7593;49.006;8.372;2022-09-01T10:38:09;3.75;;;3.45;;
14994;SDS011;7593;49.006;8.372;2022-09-01T10:40:43;3.83;;;3.53;;
14994;SDS011;7593;49.006;8.372;2022-09-01T10:46:06;3.67;;;3.38;;
14994;SDS011;7593;49.006;8.372;2022-09-01T10:48:34;3.63;;;3.33;;
14994;SDS011;7593;49.006;8.372;2022-09-01T10:54:08;5.03;;;3.63;;
14994;SDS011;7593;49.006;8.372;2022-09-01T10:56:56;4.03;;;3.40;;
14994;SDS011;7593;49.006;8.372;2022-09-01T10:59:25;3.70;;;3.30;;
14994;SDS011;7593;49.006;8.372;2022-09-01T11:07:40;6.75;;;3.90;;
14994;SDS011;7593;49.006;8.372;2022-09-01T11:10:27;3.90;;;3.50;;
14994;SDS011;7593;49.006;8.372;2022-09-01T11:16:23;4.20;;;3.80;;
14994;SDS011;7593;49.006;8.372;2022-09-01T11:18:52;4.35;;;3.60;;
14994;SDS011;7593;49.006;8.372;2022-09-01T11:21:22;5.13;;;4.00;;
14994;SDS011;7593;49.006;8.372;2022-09-01T11:24:04;4.88;;;3.85;;
14994;SDS011;7593;49.006;8.372;2022-09-01T11:33:26;4.00;;;3.60;;
14994;SDS011;7593;49.006;8.372;2022-09-01T11:36:00;4.18;;;3.40;;
14994;SDS011;7593;49.006;8.372;2022-09-01T11:38:31;4.28;;;3.88;;
14994;SDS011;7593;49.006;8.372;2022-09-01T11:41:08;4.68;;;3.97;;
14994;SDS011;7593;49.006;8.372;2022-09-01T11:43:48;5.43;;;3.72;;
14994;SDS011;7593;49.006;8.372;2022-09-01T11:46:19;5.05;;;3.67;;
14994;SDS011;7593;49.006;8.372;2022-09-01T11:48:50;4.22;;;3.83;;
14994;SDS011;7593;49.006;8.372;2022-09-01T11:51:17;4.55;;;4.07;;
14994;SDS011;7593;49.006;8.372;2022-09-01T11:53:45;7.93;;;4.05;;
14994;SDS011;7593;49.006;8.372;2022-09-01T11:56:14;6.70;;;4.07;;
14994;SDS011;7593;49.006;8.372;2022-09-01T11:58:42;4.82;;;3.70;;
14994;SDS011;7593;49.006;8.372;2022-09-01T12:01:13;6.57;;;4.15;;
14994;SDS011;7593;49.006;8.372;2022-09-01T12:03:44;6.10;;;4.28;;
14994;SDS011;7593;49.006;8.372;2022-09-01T12:06:18;4.70;;;4.30;;
14994;SDS011;7593;49.006;8.372;2022-09-01T12:08:51;4.32;;;3.90;;
14994;SDS011;7593;49.006;8.372;2022-09-01T12:11:21;5.28;;;4.20;;
14994;SDS011;7593;49.006;8.372;2022-09-01T12:13:55;4.75;;;4.30;;
14994;SDS011;7593;49.006;8.372;2022-09-01T12:16:24;4.60;;;4.20;;
14994;SDS011;7593;49.006;8.372;2022-09-01T12:18:54;11.10;;;3.92;;
14994;SDS011;7593;49.006;8.372;2022-09-01T12:21:25;4.30;;;3.90;;
14994;SDS011;7593;49.006;8.372;2022-09-01T12:23:54;4.45;;;4.05;;
14994;SDS011;7593;49.006;8.372;2022-09-01T12:26:37;3.85;;;3.50;;
14994;SDS011;7593;49.006;8.372;2022-09-01T12:29:05;3.80;;;3.42;;
14994;SDS011;7593;49.006;8.372;2022-09-01T12:31:32;3.67;;;3.30;;
14994;SDS011;7593;49.006;8.372;2022-09-01T12:34:01;4.20;;;3.20;;
14994;SDS011;7593;49.006;8.372;2022-09-01T12:36:29;3.30;;;3.00;;
14994;SDS011;7593;49.006;8.372;2022-09-01T12:41:59;5.50;;;3.13;;
14994;SDS011;7593;49.006;8.372;2022-09-01T12:44:29;3.50;;;2.97;;
14994;SDS011;7593;49.006;8.372;2022-09-01T12:46:59;3.10;;;2.80;;
14994;SDS011;7593;49.006;8.372;2022-09-01T12:49:39;4.05;;;2.65;;
14994;SDS011;7593;49.006;8.372;2022-09-01T12:52:17;3.58;;;2.60;;
14994;SDS011;7593;49.006;8.372;2022-09-01T12:54:50;3.83;;;2.83;;
14994;SDS011;7593;49.006;8.372;2022-09-01T12:57:23;3.92;;;2.78;;
14994;SDS011;7593;49.006;8.372;2022-09-01T13:00:12;3.25;;;2.63;;
14994;SDS011;7593;49.006;8.372;2022-09-01T13:02:44;3.08;;;2.70;;
14994;SDS011;7593;49.006;8.372;2022-09-01T13:05:18;2.83;;;2.50;;
14994;SDS011;7593;49.006;8.372;2022-09-01T13:07:46;2.97;;;2.67;;
14994;SDS011;7593;49.006;8.372;2022-09-01T13:10:13;5.18;;;2.67;;
14994;SDS011;7593;49.006;8.372;2022-09-01T13:12:41;2.83;;;2.58;;
14994;SDS011;7593;49.006;8.372;2022-09-01T13:15:08;2.95;;;2.70;;
14994;SDS011;7593;49.006;8.372;2022-09-01T13:17:36;2.90;;;2.70;;
14994;SDS011;7593;49.006;8.372;2022-09-01T13:20:04;3.53;;;3.00;;
14994;SDS011;7593;49.006;8.372;2022-09-01T13:22:33;4.72;;;2.88;;
14994;SDS011;7593;49.006;8.372;2022-09-01T13:25:00;2.65;;;2.45;;
14994;SDS011;7593;49.006;8.372;2022-09-01T13:27:27;3.85;;;2.60;;
14994;SDS011;7593;49.006;8.372;2022-09-01T13:29:53;3.00;;;2.65;;
14994;SDS011;7593;49.006;8.372;2022-09-01T13:32:21;3.17;;;2.80;;
14994;SDS011;7593;49.006;8.372;2022-09-01T13:34:49;2.80;;;2.60;;
14994;SDS011;7593;49.006;8.372;2022-09-01T13:37:18;2.63;;;2.42;;
14994;SDS011;7593;49.006;8.372;2022-09-01T13:39:46;2.60;;;2.38;;
14994;SDS011;7593;49.006;8.372;2022-09-01T13:42:14;6.00;;;2.58;;
14994;SDS011;7593;49.006;8.372;2022-09-01T13:44:42;2.60;;;2.40;;
14994;SDS011;7593;49.006;8.372;2022-09-01T13:47:09;2.55;;;2.35;;
14994;SDS011;7593;49.006;8.372;2022-09-01T13:49:36;5.45;;;2.67;;
14994;SDS011;7593;49.006;8.372;2022-09-01T13:52:03;2.90;;;2.50;;
14994;SDS011;7593;49.006;8.372;2022-09-01T13:54:30;3.67;;;2.53;;
14994;SDS011;7593;49.006;8.372;2022-09-01T13:56:58;2.50;;;2.30;;
14994;SDS011;7593;49.006;8.372;2022-09-01T13:59:25;2.42;;;2.15;;
14994;SDS011;7593;49.006;8.372;2022-09-01T14:01:53;3.85;;;2.75;;
14994;SDS011;7593;49.006;8.372;2022-09-01T14:04:20;3.10;;;2.42;;
14994;SDS011;7593;49.006;8.372;2022-09-01T14:06:47;2.50;;;2.30;;
14994;SDS011;7593;49.006;8.372;2022-09-01T14:09:14;3.13;;;2.20;;
14994;SDS011;7593;49.006;8.372;2022-09-01T14:11:41;4.50;;;2.50;;
14994;SDS011;7593;49.006;8.372;2022-09-01T14:14:09;3.00;;;2.50;;
14994;SDS011;7593;49.006;8.372;2022-09-01T14:16:36;4.18;;;2.50;;
14994;SDS011;7593;49.006;8.372;2022-09-01T14:19:03;2.60;;;2.40;;
14994;SDS011;7593;49.006;8.372;2022-09-01T14:21:30;2.85;;;2.53;;
14994;SDS011;7593;49.006;8.372;2022-09-01T14:23:57;2.28;;;2.08;;
14994;SDS011;7593;49.006;8.372;2022-09-01T14:26:24;3.05;;;2.22;;
14994;SDS011;7593;49.006;8.372;2022-09-01T14:28:51;2.97;;;2.28;;
14994;SDS011;7593;49.006;8.372;2022-09-01T14:31:20;3.20;;;2.30;;
14994;SDS011;7593;49.006;8.372;2022-09-01T14:33:47;2.40;;;2.17;;
14994;SDS011;7593;49.006;8.372;2022-09-01T14:36:15;3.40;;;2.53;;
14994;SDS011;7593;49.006;8.372;2022-09-01T14:38:43;2.40;;;2.20;;
14994;SDS011;7593;49.006;8.372;2022-09-01T14:41:11;2.60;;;2.40;;
14994;SDS011;7593;49.006;8.372;2022-09-01T14:43:38;2.67;;;2.47;;
14994;SDS011;7593;49.006;8.372;2022-09-01T14:46:07;3.67;;;2.05;;
14994;SDS011;7593;49.006;8.372;2022-09-01T14:48:37;2.80;;;2.10;;
14994;SDS011;7593;49.006;8.372;2022-09-01T14:51:05;2.58;;;2.13;;
14994;SDS011;7593;49.006;8.372;2022-09-01T14:53:34;2.53;;;2.30;;
14994;SDS011;7593;49.006;8.372;2022-09-01T14:56:01;3.17;;;2.30;;
14994;SDS011;7593;49.006;8.372;2022-09-01T14:58:29;2.92;;;2.20;;
14994;SDS011;7593;49.006;8.372;2022-09-01T15:00:56;2.55;;;2.25;;
14994;SDS011;7593;49.006;8.372;2022-09-01T15:03:23;3.45;;;2.20;;
14994;SDS011;7593;49.006;8.372;2022-09-01T15:05:52;2.75;;;2.40;;
14994;SDS011;7593;49.006;8.372;2022-09-01T15:08:20;2.67;;;2.38;;
14994;SDS011;7593;49.006;8.372;2022-09-01T15:10:47;3.35;;;2.47;;
14994;SDS011;7593;49.006;8.372;2022-09-01T15:13:14;2.47;;;1.95;;
14994;SDS011;7593;49.006;8.372;2022-09-01T15:15:41;2.33;;;2.15;;
14994;SDS011;7593;49.006;8.372;2022-09-01T15:18:08;2.38;;;2.17;;
14994;SDS011;7593;49.006;8.372;2022-09-01T15:20:37;5.05;;;2.30;;
14994;SDS011;7593;49.006;8.372;2022-09-01T15:23:14;2.65;;;2.42;;
14994;SDS011;7593;49.006;8.372;2022-09-01T15:25:43;4.20;;;2.92;;
14994;SDS011;7593;49.006;8.372;2022-09-01T15:28:10;3.00;;;2.72;;
14994;SDS011;7593;49.006;8.372;2022-09-01T15:30:38;3.28;;;2.80;;
14994;SDS011;7593;49.006;8.372;2022-09-01T15:33:05;4.65;;;2.72;;
14994;SDS011;7593;49.006;8.372;2022-09-01T15:35:33;3.05;;;2.83;;
14994;SDS011;7593;49.006;8.372;2022-09-01T15:38:00;3.67;;;3.00;;
14994;SDS011;7593;49.006;8.372;2022-09-01T15:40:30;2.70;;;2.47;;
14994;SDS011;7593;49.006;8.372;2022-09-01T15:42:57;3.15;;;2.65;;
14994;SDS011;7593;49.006;8.372;2022-09-01T15:45:24;2.95;;;2.53;;
14994;SDS011;7593;49.006;8.372;2022-09-01T15:47:52;3.80;;;2.53;;
14994;SDS011;7593;49.006;8.372;2022-09-01T15:50:21;2.70;;;2.50;;
14994;SDS011;7593;49.006;8.372;2022-09-01T15:52:50;2.47;;;2.28;;
14994;SDS011;7593;49.006;8.372;2022-09-01T15:55:19;3.53;;;2.60;;
14994;SDS011;7593;49.006;8.372;2022-09-01T15:57:49;3.85;;;2.83;;
14994;SDS011;7593;49.006;8.372;2022-09-01T16:00:16;3.55;;;2.75;;